Time;durP1;ratioP1;P1;durP2;ratioP2;P2;SDS_P1;SDS_P2;PMS_P1;PMS_P2;Temp;Humidity;BMP_temperature;BMP_pressure;BME280_temperature;BME280_humidity;BME280_pressure;Samples;Min_cycle;Max_cycle;Signal;HPM_P1;HPM_P2
2022/05/29 00:00:12;;;;;;;0.88;0.50;;;;;;;20.49;42.58;93069.03;4985535;28;20036;-89
2022/05/29 00:02:37;;;;;;;0.88;0.40;;;;;;;20.49;42.44;93071.78;4999544;28;20465;-91
2022/05/29 00:05:03;;;;;;;0.63;0.50;;;;;;;20.47;42.39;93068.84;4980715;28;20447;-90
2022/05/29 00:07:29;;;;;;;0.30;0.30;;;;;;;20.47;42.27;93062.59;4984382;28;20057;-91
2022/05/29 00:09:54;;;;;;;0.40;0.30;;;;;;;20.47;42.69;93059.84;4987772;28;20060;-90
2022/05/29 00:12:20;;;;;;;0.40;0.40;;;;;;;20.46;42.66;93059.13;4981148;28;20070;-90
2022/05/29 00:14:47;;;;;;;0.85;0.50;;;;;;;20.45;42.23;93052.16;5006071;28;20052;-90
2022/05/29 00:17:13;;;;;;;0.70;0.63;;;;;;;20.45;42.38;93054.91;4979162;28;20062;-90
2022/05/29 00:19:39;;;;;;;0.50;0.50;;;;;;;20.46;42.25;93061.13;4979461;28;20044;-90
2022/05/29 00:22:05;;;;;;;0.50;0.50;;;;;;;20.46;42.53;93061.13;5001507;28;20038;-91
2022/05/29 00:24:30;;;;;;;0.38;0.38;;;;;;;20.44;42.49;93052.69;4992392;28;20056;-90
2022/05/29 00:26:56;;;;;;;0.70;0.60;;;;;;;20.45;42.33;93054.16;5004853;28;20488;-91
2022/05/29 00:29:21;;;;;;;0.57;0.35;;;;;;;20.45;42.43;93052.16;4966355;28;20418;-90
2022/05/29 00:31:47;;;;;;;0.50;0.50;;;;;;;20.43;42.29;93054.69;5009710;28;20090;-91
2022/05/29 00:34:13;;;;;;;0.43;0.43;;;;;;;20.43;42.43;93062.19;4978540;28;20064;-89
2022/05/29 00:36:39;;;;;;;0.50;0.43;;;;;;;20.43;42.37;93057.44;4992929;28;20270;-90
2022/05/29 00:39:08;;;;;;;0.40;0.40;;;;;;;20.42;42.25;93064.19;4989729;28;20037;-91
2022/05/29 00:41:34;;;;;;;0.50;0.50;;;;;;;20.42;42.14;93057.97;4993702;28;20423;-90
2022/05/29 00:44:09;;;;;;;1.25;0.40;;;;;;;20.43;42.45;93065.69;4991787;28;20384;-90
2022/05/29 00:46:34;;;;;;;0.60;0.40;;;;;;;20.44;41.81;93060.94;5009256;28;20037;-90
2022/05/29 00:49:05;;;;;;;0.52;0.52;;;;;;;20.42;42.25;93058.72;4975335;28;20080;-90
2022/05/29 00:51:31;;;;;;;1.48;0.50;;;;;;;20.40;42.19;93058.50;5007008;28;20140;-90
2022/05/29 00:53:56;;;;;;;1.77;0.50;;;;;;;20.41;42.23;93056.50;4993713;28;20042;-90
2022/05/29 00:56:22;;;;;;;0.65;0.50;;;;;;;20.39;42.13;93059.78;4989335;28;20087;-91
2022/05/29 00:58:47;;;;;;;0.50;0.50;;;;;;;20.41;42.24;93051.00;4946553;28;20042;-90
2022/05/29 01:01:13;;;;;;;0.40;0.40;;;;;;;20.40;42.09;93038.53;4991184;28;20037;-90
2022/05/29 01:03:38;;;;;;;0.47;0.47;;;;;;;20.41;42.02;93042.75;5000670;28;20041;-90
2022/05/29 01:06:04;;;;;;;1.33;0.60;;;;;;;20.37;42.39;93043.09;4992602;28;20040;-90
2022/05/29 01:08:33;;;;;;;0.73;0.50;;;;;;;20.39;42.11;93043.28;4993616;28;20034;-91
2022/05/29 01:11:19;;;;;;;0.57;0.40;;;;;;;20.38;42.23;93041.09;4980545;28;20033;-91
2022/05/29 01:13:57;;;;;;;0.45;0.45;;;;;;;20.36;42.20;93032.59;5009716;28;20065;-91
2022/05/29 01:16:37;;;;;;;0.57;0.40;;;;;;;20.36;42.25;93036.09;5019220;28;20038;-90
2022/05/29 01:19:11;;;;;;;0.75;0.50;;;;;;;20.39;42.29;93032.31;5007778;28;20037;-90
2022/05/29 01:21:37;;;;;;;0.40;0.40;;;;;;;20.38;42.22;93028.09;5027547;28;20060;-91
2022/05/29 01:24:26;;;;;;;0.50;0.50;;;;;;;20.37;42.41;93025.88;5010693;28;20029;-91
2022/05/29 01:27:16;;;;;;;0.75;0.40;;;;;;;20.37;42.29;93023.88;4975298;28;20072;-91
2022/05/29 01:30:15;;;;;;;0.70;0.60;;;;;;;20.36;42.58;93016.88;5001819;28;20038;-91
2022/05/29 01:32:46;;;;;;;0.70;0.43;;;;;;;20.37;42.38;93009.41;5009443;28;20041;-90
2022/05/29 01:35:23;;;;;;;0.38;0.38;;;;;;;20.35;42.37;92996.19;5001399;28;20041;-91
2022/05/29 01:37:57;;;;;;;0.75;0.60;;;;;;;20.34;42.12;92999.50;4969642;28;20113;-90
2022/05/29 01:40:39;;;;;;;0.45;0.40;;;;;;;20.33;42.05;92995.28;4975890;28;20092;-90
2022/05/29 01:43:32;;;;;;;0.40;0.40;;;;;;;20.35;42.27;92989.97;5009258;28;20081;-91
2022/05/29 01:46:01;;;;;;;0.60;0.60;;;;;;;20.33;42.25;92989.78;5009133;28;20072;-90
2022/05/29 01:48:45;;;;;;;2.13;0.77;;;;;;;20.33;42.22;92985.03;5009197;28;20049;-91
2022/05/29 01:51:18;;;;;;;0.60;0.40;;;;;;;20.34;42.39;92983.75;5002060;28;20042;-91
2022/05/29 01:53:56;;;;;;;0.52;0.38;;;;;;;20.33;41.92;92976.06;4984979;28;20026;-91
2022/05/29 01:56:30;;;;;;;0.77;0.60;;;;;;;20.32;42.06;92977.31;4991750;28;20049;-90
2022/05/29 01:59:00;;;;;;;0.57;0.57;;;;;;;20.31;42.13;92962.84;4987687;28;20068;-90
2022/05/29 02:01:29;;;;;;;0.43;0.43;;;;;;;20.32;42.00;92958.09;4984640;28;20030;-91
2022/05/29 02:03:55;;;;;;;0.38;0.38;;;;;;;20.31;42.10;92959.38;4991130;28;20049;-91
2022/05/29 02:06:27;;;;;;;0.30;0.30;;;;;;;20.29;42.17;92948.94;4989147;28;20049;-91
2022/05/29 02:08:59;;;;;;;0.60;0.50;;;;;;;20.30;42.17;92953.16;5009193;28;20044;-91
2022/05/29 02:11:26;;;;;;;0.50;0.50;;;;;;;20.31;42.15;92943.66;5008701;28;20030;-90
2022/05/29 02:14:00;;;;;;;0.75;0.60;;;;;;;20.30;42.27;92944.19;4992245;28;20033;-91
2022/05/29 02:16:36;;;;;;;0.40;0.40;;;;;;;20.29;42.17;92940.69;5010362;28;20034;-90
2022/05/29 02:19:19;;;;;;;0.50;0.50;;;;;;;20.30;42.19;92941.44;5025626;28;20034;-90
2022/05/29 02:21:50;;;;;;;0.52;0.50;;;;;;;20.29;41.83;92935.19;5026092;28;20046;-90
2022/05/29 02:24:18;;;;;;;0.90;0.60;;;;;;;20.29;41.86;92935.19;4992072;28;20038;-89
2022/05/29 02:27:06;;;;;;;0.40;0.40;;;;;;;20.27;42.16;92931.50;4976273;28;20040;-90
2022/05/29 02:29:31;;;;;;;0.60;0.60;;;;;;;20.27;41.97;92926.03;4999720;28;20044;-90
2022/05/29 02:32:18;;;;;;;0.50;0.50;;;;;;;20.29;41.86;92928.97;5009127;28;20049;-90
2022/05/29 02:34:48;;;;;;;0.30;0.30;;;;;;;20.28;41.79;92922.00;4976569;28;20045;-90
2022/05/29 02:37:24;;;;;;;0.43;0.40;;;;;;;20.28;42.09;92922.00;5024843;28;20084;-91
2022/05/29 02:39:53;;;;;;;0.50;0.50;;;;;;;20.26;42.13;92919.06;4999805;28;20061;-91
2022/05/29 02:42:39;;;;;;;1.38;0.60;;;;;;;20.26;41.75;92914.31;4989175;28;20072;-90
2022/05/29 02:45:26;;;;;;;0.40;0.40;;;;;;;20.26;42.00;92914.31;4992052;28;20033;-91
2022/05/29 02:47:56;;;;;;;0.60;0.60;;;;;;;20.27;41.99;92926.75;5026133;28;20060;-90
2022/05/29 02:50:39;;;;;;;0.60;0.60;;;;;;;20.25;42.03;92918.31;5025629;28;20045;-91
2022/05/29 02:53:11;;;;;;;0.40;0.40;;;;;;;20.24;42.40;92916.13;4995993;28;20045;-91
2022/05/29 02:55:36;;;;;;;0.50;0.50;;;;;;;20.23;42.04;92915.38;4991966;28;20042;-90
2022/05/29 02:58:03;;;;;;;1.20;0.57;;;;;;;20.22;41.96;92919.38;5005166;28;20049;-90
2022/05/29 03:00:32;;;;;;;0.43;0.43;;;;;;;20.24;41.88;92924.34;5006611;28;20041;-90
2022/05/29 03:03:09;;;;;;;0.50;0.40;;;;;;;20.23;42.04;92923.59;4991752;28;20041;-90
2022/05/29 03:05:53;;;;;;;0.55;0.50;;;;;;;20.22;41.82;92916.66;4999305;28;20087;-90
2022/05/29 03:08:21;;;;;;;0.40;0.40;;;;;;;20.22;42.05;92913.91;4991356;28;20041;-91
2022/05/29 03:11:06;;;;;;;0.63;0.50;;;;;;;20.22;41.84;92921.41;5008639;28;20080;-91
2022/05/29 03:13:50;;;;;;;0.68;0.60;;;;;;;20.20;41.87;92910.94;5028392;28;20115;-90
2022/05/29 03:16:40;;;;;;;0.55;0.45;;;;;;;20.22;41.77;92918.66;5000377;28;20321;-91
2022/05/29 03:19:11;;;;;;;1.73;0.70;;;;;;;20.19;41.61;92907.47;4987947;28;20045;-90
2022/05/29 03:21:56;;;;;;;0.73;0.50;;;;;;;20.20;41.79;92914.44;5029408;28;20069;-90
2022/05/29 03:24:39;;;;;;;0.52;0.43;;;;;;;20.20;42.02;92906.19;5001994;28;20041;-91
2022/05/29 03:27:26;;;;;;;0.55;0.45;;;;;;;20.19;41.99;92901.97;5010304;28;20033;-91
2022/05/29 03:29:57;;;;;;;0.50;0.50;;;;;;;20.19;41.80;92893.00;4988971;28;20029;-90
2022/05/29 03:32:22;;;;;;;0.52;0.40;;;;;;;20.18;41.96;92908.75;4994389;28;20045;-90
2022/05/29 03:34:47;;;;;;;0.55;0.55;;;;;;;20.19;41.90;92904.72;5011622;28;20037;-91
2022/05/29 03:37:13;;;;;;;0.82;0.50;;;;;;;20.19;41.80;92901.25;4994982;28;20046;-90
2022/05/29 03:39:38;;;;;;;0.63;0.47;;;;;;;20.19;41.46;92891.00;5006650;28;20672;-90
2022/05/29 03:42:05;;;;;;;0.57;0.50;;;;;;;20.19;41.81;92904.72;4975651;28;20108;-91
2022/05/29 03:44:30;;;;;;;0.40;0.40;;;;;;;20.22;41.79;92902.19;5009919;28;20083;-90
2022/05/29 03:46:56;;;;;;;0.57;0.57;;;;;;;20.20;42.00;92903.47;5011509;28;20022;-92
2022/05/29 03:49:22;;;;;;;0.40;0.40;;;;;;;20.19;41.80;92901.25;4994470;28;20523;-91
2022/05/29 03:51:48;;;;;;;0.80;0.50;;;;;;;20.21;41.73;92901.44;4989509;28;20045;-91
2022/05/29 03:54:13;;;;;;;0.40;0.40;;;;;;;20.23;41.70;92903.66;4973899;28;20347;-91
2022/05/29 03:56:39;;;;;;;0.47;0.47;;;;;;;20.25;41.70;92901.84;5010079;28;20052;-91
2022/05/29 03:59:04;;;;;;;0.68;0.40;;;;;;;20.23;41.66;92903.66;5022074;28;20044;-90
2022/05/29 04:01:30;;;;;;;0.80;0.50;;;;;;;20.27;41.51;92893.81;4995224;28;20345;-92
2022/05/29 04:03:55;;;;;;;0.52;0.50;;;;;;;20.29;41.34;92890.56;4989392;28;20099;-90
2022/05/29 04:06:21;;;;;;;0.88;0.47;;;;;;;20.31;41.68;92901.72;4975194;28;20042;-91
2022/05/29 04:14:15;;;;;;;1.05;0.43;;;;;;;20.28;41.83;92884.31;5001551;28;20088;-90
2022/05/29 04:16:40;;;;;;;0.40;0.40;;;;;;;20.29;41.43;92879.56;4999569;28;20436;-91
2022/05/29 04:19:06;;;;;;;0.60;0.50;;;;;;;20.28;41.51;92881.56;4996983;28;20025;-90
2022/05/29 04:21:31;;;;;;;1.77;0.50;;;;;;;20.31;41.59;92885.25;4994213;28;20041;-90
2022/05/29 04:23:57;;;;;;;0.65;0.50;;;;;;;20.27;41.54;92871.13;5010867;28;20043;-91
2022/05/29 04:26:22;;;;;;;1.08;0.57;;;;;;;20.25;41.42;92877.16;4993488;28;20026;-90
2022/05/29 04:28:48;;;;;;;0.20;0.20;;;;;;;20.25;41.52;92871.66;5003070;28;20044;-90
2022/05/29 04:31:13;;;;;;;0.43;0.43;;;;;;;20.28;41.49;92867.84;5010498;28;20116;-90
2022/05/29 04:33:39;;;;;;;0.60;0.47;;;;;;;20.32;41.52;92873.00;4994280;28;20052;-90
2022/05/29 04:36:04;;;;;;;0.35;0.35;;;;;;;20.29;41.58;92863.09;4993813;28;20044;-90
2022/05/29 04:38:30;;;;;;;0.30;0.30;;;;;;;20.31;41.59;92864.03;4993806;28;20041;-90
2022/05/29 04:40:55;;;;;;;0.50;0.50;;;;;;;20.34;41.63;92870.47;5004013;28;20041;-90
2022/05/29 04:43:21;;;;;;;0.55;0.47;;;;;;;20.36;41.45;92874.13;5002706;28;20033;-90
2022/05/29 04:45:46;;;;;;;1.30;0.40;;;;;;;20.35;41.64;92858.22;5026581;28;20456;-91
2022/05/29 04:48:13;;;;;;;0.40;0.40;;;;;;;20.35;41.53;92864.41;4965965;28;20059;-91
2022/05/29 04:50:38;;;;;;;0.73;0.40;;;;;;;20.34;41.63;92852.00;4973121;28;20451;-91
2022/05/29 04:53:04;;;;;;;0.68;0.50;;;;;;;20.34;41.55;92846.50;4980050;28;20083;-90
2022/05/29 04:55:30;;;;;;;0.40;0.40;;;;;;;20.34;41.71;92849.25;5006827;28;20120;-90
2022/05/29 04:57:55;;;;;;;0.60;0.60;;;;;;;20.35;41.46;92860.97;4962242;28;20041;-90
2022/05/29 05:00:22;;;;;;;0.63;0.40;;;;;;;20.34;41.26;92852.00;5006173;28;20038;-91
2022/05/29 05:02:47;;;;;;;0.52;0.50;;;;;;;20.35;41.32;92858.22;4993701;28;20025;-91
2022/05/29 05:05:13;;;;;;;1.48;0.52;;;;;;;20.35;41.29;92855.47;5004309;28;20050;-91
2022/05/29 05:07:38;;;;;;;1.33;0.52;;;;;;;20.35;41.40;92841.75;5010131;28;20586;-90
2022/05/29 05:10:05;;;;;;;0.40;0.38;;;;;;;20.35;41.27;92847.25;4993558;28;20040;-90
2022/05/29 05:12:31;;;;;;;0.60;0.50;;;;;;;20.36;41.31;92851.44;4993064;28;20128;-91
2022/05/29 05:14:57;;;;;;;0.32;0.32;;;;;;;20.35;41.31;92853.44;4993569;28;20714;-91
2022/05/29 05:17:22;;;;;;;0.60;0.40;;;;;;;20.34;41.32;92848.50;5004591;28;20112;-91
2022/05/29 05:19:48;;;;;;;0.80;0.60;;;;;;;20.34;41.39;92846.50;4993306;28;20504;-90
2022/05/29 05:22:13;;;;;;;0.55;0.50;;;;;;;20.34;41.25;92848.50;4992633;28;20049;-91
2022/05/29 05:24:39;;;;;;;0.30;0.30;;;;;;;20.35;41.33;92853.44;5009161;28;20032;-90
2022/05/29 05:27:05;;;;;;;0.47;0.47;;;;;;;20.36;41.37;92843.94;4992427;28;20037;-90
2022/05/29 05:29:31;;;;;;;0.40;0.40;;;;;;;20.36;41.84;92841.19;4995574;28;20042;-91
2022/05/29 05:31:56;;;;;;;0.50;0.50;;;;;;;20.34;41.67;92832.78;4987241;28;20044;-91
2022/05/29 05:34:22;;;;;;;0.40;0.40;;;;;;;20.35;41.50;92831.47;4992605;28;20073;-91
2022/05/29 05:36:47;;;;;;;0.95;0.40;;;;;;;20.34;41.55;92827.28;5008756;28;20480;-91
2022/05/29 05:39:13;;;;;;;0.30;0.30;;;;;;;20.33;41.55;92820.31;4992987;28;20042;-90
2022/05/29 05:41:38;;;;;;;0.40;0.40;;;;;;;20.33;41.57;92823.06;5005991;28;20535;-90
2022/05/29 05:44:04;;;;;;;0.30;0.30;;;;;;;20.35;41.35;92819.78;5008949;28;20079;-91
2022/05/29 05:46:29;;;;;;;0.65;0.50;;;;;;;20.36;41.51;92813.00;5009149;28;20030;-91
2022/05/29 05:48:55;;;;;;;0.60;0.50;;;;;;;20.34;41.23;92823.81;4982474;28;20567;-91
2022/05/29 05:51:21;;;;;;;0.50;0.50;;;;;;;20.35;41.52;92814.28;4992592;28;20045;-90
2022/05/29 05:53:47;;;;;;;0.40;0.40;;;;;;;20.36;41.56;92813.72;5004241;28;20084;-90
2022/05/29 05:56:13;;;;;;;0.40;0.40;;;;;;;20.36;41.54;92810.25;4972357;28;20057;-91
2022/05/29 05:58:40;;;;;;;0.50;0.50;;;;;;;20.37;41.44;92812.50;5019846;28;20036;-90
2022/05/29 06:01:07;;;;;;;0.60;0.60;;;;;;;20.34;41.50;92804.59;5008975;28;20038;-91
2022/05/29 06:03:32;;;;;;;0.77;0.65;;;;;;;20.34;41.76;92801.84;5009630;28;20040;-90
2022/05/29 06:05:58;;;;;;;0.47;0.43;;;;;;;20.33;41.63;92814.84;4987969;28;20030;-90
2022/05/29 06:08:24;;;;;;;2.63;0.50;;;;;;;20.33;41.43;92806.59;4989746;28;20041;-90
2022/05/29 06:10:49;;;;;;;1.60;0.50;;;;;;;20.34;41.42;92810.09;5009099;28;20480;-91
2022/05/29 06:13:16;;;;;;;0.50;0.43;;;;;;;20.33;41.40;92817.56;5025409;28;20040;-90
2022/05/29 06:15:46;;;;;;;1.05;0.68;;;;;;;20.34;41.32;92812.81;4992546;28;20045;-90
2022/05/29 06:18:12;;;;;;;0.57;0.52;;;;;;;20.32;41.50;92813.34;4989858;28;20109;-90
2022/05/29 06:20:39;;;;;;;0.63;0.50;;;;;;;20.33;41.64;92803.84;4992010;28;20320;-91
2022/05/29 06:23:04;;;;;;;0.40;0.40;;;;;;;20.33;41.41;92809.34;5008898;28;20064;-90
2022/05/29 06:25:30;;;;;;;0.65;0.65;;;;;;;20.33;41.49;92808.59;4992535;28;20038;-91
2022/05/29 06:27:55;;;;;;;0.60;0.60;;;;;;;20.35;41.54;92814.28;4992511;28;20037;-91
2022/05/29 06:30:21;;;;;;;0.60;0.60;;;;;;;20.35;41.53;92817.03;4990572;28;21032;-92
2022/05/29 06:32:46;;;;;;;0.90;0.57;;;;;;;20.34;41.14;92807.34;4992779;28;20068;-91
2022/05/29 06:35:13;;;;;;;0.57;0.57;;;;;;;20.33;41.57;92808.59;5008348;28;20049;-90
2022/05/29 06:37:40;;;;;;;0.63;0.52;;;;;;;20.32;41.26;92804.38;4992362;28;20041;-91
2022/05/29 06:40:06;;;;;;;0.50;0.50;;;;;;;20.33;41.59;92812.09;5008319;28;20091;-90
2022/05/29 06:42:31;;;;;;;0.77;0.60;;;;;;;20.33;41.32;92814.84;4975965;28;20042;-90
2022/05/29 06:44:58;;;;;;;0.38;0.38;;;;;;;20.31;41.43;92802.91;5008955;28;20072;-90
2022/05/29 06:47:24;;;;;;;0.55;0.50;;;;;;;20.32;41.47;92812.63;5025226;28;20030;-91
2022/05/29 06:49:50;;;;;;;0.70;0.70;;;;;;;20.32;41.34;92804.38;5012952;28;20044;-90
2022/05/29 06:52:15;;;;;;;0.80;0.50;;;;;;;20.31;41.19;92808.41;4995681;28;20033;-91
2022/05/29 06:54:41;;;;;;;0.88;0.57;;;;;;;20.30;41.22;92806.94;4996088;28;20459;-91
2022/05/29 06:57:08;;;;;;;0.73;0.57;;;;;;;20.29;41.77;92797.97;4994839;28;20049;-90
2022/05/29 07:07:51;;;;;;;1.00;0.60;;;;;;;20.33;41.20;92825.06;4994929;28;20041;-90
2022/05/29 07:10:16;;;;;;;0.70;0.50;;;;;;;20.31;41.09;92822.88;4978007;28;20058;-90
2022/05/29 07:12:42;;;;;;;0.45;0.45;;;;;;;20.31;41.22;92830.38;4995570;28;20124;-90
2022/05/29 07:15:08;;;;;;;0.52;0.52;;;;;;;20.32;41.33;92829.84;4989468;28;20041;-89
2022/05/29 07:17:33;;;;;;;0.50;0.50;;;;;;;20.34;41.09;92821.06;5003539;28;20049;-90
2022/05/29 07:19:59;;;;;;;0.47;0.47;;;;;;;20.33;41.27;92827.81;5006474;28;20041;-90
2022/05/29 07:22:26;;;;;;;1.42;0.60;;;;;;;20.32;40.78;92818.13;4994830;28;20049;-90
2022/05/29 07:24:51;;;;;;;0.70;0.60;;;;;;;20.34;41.27;92816.31;4995559;28;20064;-91
2022/05/29 07:27:16;;;;;;;0.50;0.50;;;;;;;20.33;41.38;92814.09;4994540;28;20033;-90
2022/05/29 07:29:42;;;;;;;0.50;0.50;;;;;;;20.33;41.27;92798.38;5002253;28;20037;-90
2022/05/29 07:32:08;;;;;;;2.05;0.60;;;;;;;20.32;41.01;92798.91;5006836;28;20038;-91
2022/05/29 07:34:34;;;;;;;1.05;0.70;;;;;;;20.34;41.07;92790.88;5028065;28;20034;-91
2022/05/29 07:37:03;;;;;;;0.47;0.47;;;;;;;20.33;41.30;92783.91;5011137;28;20056;-91
2022/05/29 07:39:28;;;;;;;1.20;0.45;;;;;;;20.34;41.23;92777.13;5011406;28;20034;-90
2022/05/29 07:44:38;;;;;;;0.75;0.63;;;;;;;20.34;41.17;92771.66;5013564;28;20487;-90
2022/05/29 07:47:04;;;;;;;0.95;0.50;;;;;;;20.35;41.01;92778.63;4994546;28;20033;-90
2022/05/29 07:49:29;;;;;;;0.82;0.63;;;;;;;20.34;41.32;92796.34;5011492;28;20472;-89
2022/05/29 07:51:55;;;;;;;0.45;0.40;;;;;;;20.35;41.13;92795.78;4994908;28;20049;-91
2022/05/29 07:54:22;;;;;;;1.08;0.63;;;;;;;20.36;41.17;92816.47;4998160;28;20393;-91
2022/05/29 07:56:47;;;;;;;1.02;0.88;;;;;;;20.36;40.96;92813.00;5010882;28;20492;-90
2022/05/29 07:59:15;;;;;;;0.95;0.60;;;;;;;20.35;41.07;92817.75;4997704;28;20139;-90
2022/05/29 08:01:40;;;;;;;0.45;0.45;;;;;;;20.35;41.25;92809.50;4987579;28;20029;-90
2022/05/29 08:04:06;;;;;;;0.57;0.52;;;;;;;20.35;40.88;92811.56;4995018;28;20040;-91
2022/05/29 08:06:31;;;;;;;0.50;0.50;;;;;;;20.36;40.90;92813.00;4982789;28;20038;-90
2022/05/29 08:08:57;;;;;;;0.75;0.60;;;;;;;20.35;41.14;92798.53;4981915;28;20036;-91
2022/05/29 08:11:24;;;;;;;0.50;0.43;;;;;;;20.37;40.98;92792.53;5010876;28;20045;-90
2022/05/29 08:13:50;;;;;;;0.77;0.70;;;;;;;20.36;40.97;92802.00;5006639;28;20022;-91
2022/05/29 08:16:16;;;;;;;0.75;0.50;;;;;;;20.37;41.42;92796.00;4994244;28;20404;-91
2022/05/29 08:18:42;;;;;;;0.45;0.40;;;;;;;20.38;41.69;92794.00;4980348;28;20322;-90
2022/05/29 08:21:08;;;;;;;0.55;0.50;;;;;;;20.35;41.06;92795.78;4974582;28;20053;-90
2022/05/29 08:23:35;;;;;;;0.98;0.60;;;;;;;20.36;41.07;92802.00;4985429;28;20038;-91
2022/05/29 08:31:28;;;;;;;0.57;0.57;;;;;;;20.38;40.92;92786.50;5003320;28;20137;-90
2022/05/29 08:33:54;;;;;;;0.52;0.50;;;;;;;20.39;40.85;92782.50;4994556;28;20026;-91
2022/05/29 08:36:24;;;;;;;0.50;0.38;;;;;;;20.39;40.93;92773.53;5026496;28;20041;-90
2022/05/29 08:38:52;;;;;;;0.60;0.50;;;;;;;20.36;41.34;92769.06;4994543;28;20048;-91
2022/05/29 08:41:27;;;;;;;0.70;0.70;;;;;;;20.37;40.98;92768.56;5008440;28;20049;-91
2022/05/29 08:44:05;;;;;;;0.50;0.50;;;;;;;20.38;40.76;92781.03;5003739;28;20419;-91
2022/05/29 08:46:36;;;;;;;0.60;0.50;;;;;;;20.38;40.98;92785.78;5010297;28;20037;-91
2022/05/29 08:49:01;;;;;;;0.57;0.50;;;;;;;20.37;41.02;92787.78;4994266;28;20449;-90
2022/05/29 08:51:48;;;;;;;1.05;0.60;;;;;;;20.40;40.81;92780.47;4993856;28;20037;-90
2022/05/29 08:54:14;;;;;;;1.05;0.40;;;;;;;20.39;41.04;92776.25;5018561;28;20046;-90
2022/05/29 08:56:45;;;;;;;0.63;0.60;;;;;;;20.39;40.80;92777.00;5026370;28;20029;-90
2022/05/29 08:59:13;;;;;;;0.60;0.60;;;;;;;20.37;41.18;92782.28;4997049;28;20034;-90
2022/05/29 09:02:01;;;;;;;0.68;0.50;;;;;;;20.38;41.09;92766.56;5001767;28;20033;-91
2022/05/29 09:04:34;;;;;;;0.98;0.60;;;;;;;20.38;41.01;92770.03;5009935;28;20060;-91
2022/05/29 09:06:59;;;;;;;0.73;0.50;;;;;;;20.39;41.17;92771.50;4985460;28;20041;-90
2022/05/29 09:09:45;;;;;;;0.50;0.50;;;;;;;20.38;41.30;92770.03;4993379;28;20044;-90
2022/05/29 09:12:15;;;;;;;0.52;0.50;;;;;;;20.38;40.89;92772.03;5027241;28;20549;-91
2022/05/29 09:14:55;;;;;;;1.23;0.57;;;;;;;20.38;41.08;92759.06;4992895;28;20069;-91
2022/05/29 09:17:37;;;;;;;0.60;0.50;;;;;;;20.38;41.25;92744.59;5008895;28;20046;-90
2022/05/29 09:20:03;;;;;;;0.75;0.50;;;;;;;20.38;41.37;92753.56;4990418;28;20555;-90
2022/05/29 09:22:32;;;;;;;0.63;0.60;;;;;;;20.38;41.32;92756.31;5009413;28;20140;-91
2022/05/29 09:25:14;;;;;;;0.60;0.60;;;;;;;20.38;41.22;92750.09;4993498;28;20072;-91
2022/05/29 09:27:43;;;;;;;1.02;0.68;;;;;;;20.38;41.38;92737.09;5009446;28;20029;-91
2022/05/29 09:30:09;;;;;;;0.50;0.50;;;;;;;20.36;41.24;92755.34;4986253;28;20034;-91
2022/05/29 09:32:36;;;;;;;0.40;0.40;;;;;;;20.41;41.17;92760.00;4976306;28;20055;-90
2022/05/29 09:35:04;;;;;;;0.55;0.52;;;;;;;20.36;41.21;92753.34;4993356;28;20046;-90
2022/05/29 09:37:51;;;;;;;0.40;0.40;;;;;;;20.38;41.57;92748.06;5009435;28;20030;-90
2022/05/29 09:40:21;;;;;;;0.80;0.63;;;;;;;20.37;41.21;92749.34;5025373;28;20068;-90
2022/05/29 09:42:48;;;;;;;0.85;0.60;;;;;;;20.38;41.20;92737.09;4993469;28;20575;-91
2022/05/29 09:45:27;;;;;;;0.50;0.50;;;;;;;20.38;41.26;92733.63;4993469;28;20041;-91
2022/05/29 09:50:48;;;;;;;0.50;0.50;;;;;;;20.37;41.45;92737.63;5012000;28;20056;-91
2022/05/29 09:53:20;;;;;;;0.85;0.60;;;;;;;20.39;41.26;92749.56;5025415;28;20038;-90
2022/05/29 09:55:51;;;;;;;0.43;0.43;;;;;;;20.37;41.64;92743.88;5002714;28;20033;-91
2022/05/29 09:58:21;;;;;;;1.95;0.38;;;;;;;20.38;41.09;92739.09;4987144;28;20038;-90
2022/05/29 10:01:02;;;;;;;0.50;0.50;;;;;;;20.38;41.05;92739.09;4961777;28;20373;-91
2022/05/29 10:03:46;;;;;;;0.63;0.60;;;;;;;20.37;41.31;92752.09;5008905;28;20040;-91
2022/05/29 10:06:23;;;;;;;1.02;0.70;;;;;;;20.39;41.25;92751.56;5020965;28;20042;-90
2022/05/29 10:08:49;;;;;;;0.80;0.68;;;;;;;20.39;41.12;92757.06;4995217;28;20504;-91
2022/05/29 10:11:20;;;;;;;1.23;0.65;;;;;;;20.39;41.23;92755.03;4992672;28;20037;-91
2022/05/29 10:13:46;;;;;;;0.73;0.60;;;;;;;20.38;41.13;92759.06;4992577;28;20042;-90
2022/05/29 10:16:11;;;;;;;0.65;0.57;;;;;;;20.38;41.06;92761.81;4992243;28;20040;-90
2022/05/29 10:18:38;;;;;;;0.85;0.55;;;;;;;20.38;41.14;92761.81;5003657;28;20042;-91
2022/05/29 10:21:09;;;;;;;0.68;0.60;;;;;;;20.37;40.98;92743.88;5009344;28;20515;-90
2022/05/29 10:23:36;;;;;;;0.60;0.60;;;;;;;20.39;41.23;92733.06;5009885;28;20048;-90
2022/05/29 10:26:09;;;;;;;1.00;0.65;;;;;;;20.39;41.35;92748.81;4977532;28;20046;-90
2022/05/29 10:28:36;;;;;;;1.02;0.70;;;;;;;20.38;41.24;92736.38;4994489;28;20096;-91
2022/05/29 10:31:26;;;;;;;0.77;0.70;;;;;;;20.38;41.24;92748.06;4988811;28;20038;-90
2022/05/29 10:34:03;;;;;;;0.53;0.53;;;;;;;20.39;41.12;92754.31;4977907;28;20030;-91
2022/05/29 10:36:29;;;;;;;0.63;0.57;;;;;;;20.39;41.39;92763.28;5010094;28;20382;-91
2022/05/29 10:39:12;;;;;;;0.60;0.60;;;;;;;20.38;41.13;92747.34;4993303;28;20042;-90
2022/05/29 10:41:40;;;;;;;0.95;0.60;;;;;;;20.39;41.32;92735.81;4994219;28;20137;-90
2022/05/29 10:44:06;;;;;;;0.50;0.50;;;;;;;20.39;41.48;92733.06;4972442;28;20455;-90
2022/05/29 10:46:52;;;;;;;0.75;0.47;;;;;;;20.38;41.20;92731.59;4993070;28;20034;-91
2022/05/29 10:49:30;;;;;;;1.13;0.65;;;;;;;20.38;41.21;92739.09;4993699;28;20058;-90
2022/05/29 10:52:08;;;;;;;0.47;0.40;;;;;;;20.39;41.26;92744.06;4977525;28;20442;-90
2022/05/29 10:55:08;;;;;;;1.38;0.50;;;;;;;20.37;41.06;92749.34;5005541;28;20645;-90
2022/05/29 10:57:52;;;;;;;0.40;0.40;;;;;;;20.41;41.09;92741.50;5008558;28;20104;-90
2022/05/29 11:00:27;;;;;;;0.70;0.50;;;;;;;20.41;41.24;92735.28;5001798;28;20766;-90
2022/05/29 11:03:17;;;;;;;0.70;0.57;;;;;;;20.38;41.40;92731.59;5009537;28;20034;-90
2022/05/29 11:06:02;;;;;;;0.45;0.45;;;;;;;20.39;41.33;92726.84;5008818;28;20192;-90
2022/05/29 11:08:58;;;;;;;0.63;0.50;;;;;;;20.38;41.31;92728.88;4956544;28;20031;-91
2022/05/29 11:11:45;;;;;;;0.80;0.43;;;;;;;20.39;41.10;92737.84;5008069;28;20583;-91
2022/05/29 11:14:20;;;;;;;0.40;0.40;;;;;;;20.37;41.28;92732.88;5008547;28;20534;-91
2022/05/29 11:16:58;;;;;;;0.40;0.40;;;;;;;20.40;41.04;92733.81;4981839;28;20042;-90
2022/05/29 11:19:57;;;;;;;0.45;0.45;;;;;;;20.38;41.34;92730.88;4981336;28;20057;-90
2022/05/29 11:22:44;;;;;;;2.05;0.43;;;;;;;20.37;41.34;92743.13;4988108;28;20488;-90
2022/05/29 11:25:26;;;;;;;1.45;0.52;;;;;;;20.40;41.14;92731.81;4958723;28;20386;-90
2022/05/29 11:28:11;;;;;;;0.40;0.40;;;;;;;20.40;41.24;92718.06;4958941;28;20400;-90
2022/05/29 11:31:15;;;;;;;0.55;0.50;;;;;;;20.36;41.59;92720.41;4974558;28;20035;-90
2022/05/29 11:33:40;;;;;;;0.68;0.50;;;;;;;20.39;41.43;92713.13;4978578;28;20034;-90
2022/05/29 11:36:30;;;;;;;0.50;0.50;;;;;;;20.37;41.63;92713.66;4991617;28;20393;-91
2022/05/29 11:39:06;;;;;;;1.80;0.45;;;;;;;20.38;41.49;92715.13;4981705;28;20041;-91
2022/05/29 11:41:45;;;;;;;0.40;0.38;;;;;;;20.37;41.52;92710.91;4975268;28;20037;-90
2022/05/29 11:44:35;;;;;;;0.40;0.40;;;;;;;20.40;41.45;92712.59;4974641;28;20554;-90
2022/05/29 11:52:38;;;;;;;0.47;0.47;;;;;;;20.39;41.07;92691.16;4981088;28;20049;-91
2022/05/29 11:55:22;;;;;;;0.40;0.40;;;;;;;20.38;41.33;92687.69;4979668;28;20034;-90
2022/05/29 11:57:55;;;;;;;1.35;0.60;;;;;;;20.39;41.27;92689.16;4960782;28;20084;-91
2022/05/29 12:00:42;;;;;;;0.40;0.40;;;;;;;20.39;41.49;92682.94;4972658;28;20034;-91
2022/05/29 12:03:40;;;;;;;0.40;0.40;;;;;;;20.38;41.42;92706.16;4975210;28;20026;-90
2022/05/29 12:06:21;;;;;;;0.50;0.50;;;;;;;20.39;41.13;92710.38;4976922;28;20462;-90
2022/05/29 12:09:07;;;;;;;0.50;0.40;;;;;;;20.38;41.00;92706.16;4976687;28;20049;-90
2022/05/29 12:11:41;;;;;;;0.88;0.60;;;;;;;20.38;41.29;92712.38;4976730;28;20343;-90
2022/05/29 12:14:10;;;;;;;0.50;0.50;;;;;;;20.39;41.35;92716.59;4975294;28;20159;-90
2022/05/29 12:16:37;;;;;;;0.60;0.60;;;;;;;20.37;41.27;92716.41;4974811;28;20030;-90
2022/05/29 12:19:08;;;;;;;0.95;0.50;;;;;;;20.36;41.34;92714.91;4967128;28;20473;-91
2022/05/29 12:21:37;;;;;;;0.40;0.40;;;;;;;20.36;41.39;92722.41;4949843;28;20034;-90